Terminal Aerodrome Forecast
Issued by NWS

Home | Current Version | Previous Version | Text Only | Print | Product List | Glossary On
Versions: 1 2 3 4 5 6 7 8 9 10 11 12 13 14 15 16 17 18 19 20 21 22 23 24 25 26 27 28
617
FTAK31 PAFA 290540 CCA
TAFAUN
TAF COR
PAUN 290540Z 2906/3006 22016KT 2SM -RA BR SCT006 BKN015 BKN025
     FM291400 22008KT 3SM -RA BR BKN006 OVC015
     FM291700 22013KT 3SM -RA BR BKN006 OVC015=

USA.gov is the U.S. government's official web portal to all federal, state and local government web resources and services.